TAF Text Data
IDs:
Format:
Raw Decoded Include METAR

Data at: 1344 UTC 05 Apr 2020

Region: TOP
KATL 051330Z 0514/0618 08003KT P6SM SCT090 BKN150
  FM051600 14003KT P6SM SCT150 BKN250
  FM052200 19004KT P6SM SCT250
  FM060800 VRB03KT P6SM FEW120
  FM061400 26004KT P6SM FEW250


KBOS 051130Z 0512/0618 18003KT P6SM BKN035 BKN120
  FM051900 15008KT P6SM BKN050
  FM060300 23009KT P6SM BKN025
  FM060600 27009KT P6SM BKN035
  FM060900 30009KT P6SM FEW150
  FM061200 32010G19KT P6SM FEW250


KBWI 051131Z 0512/0618 23003KT P6SM OVC060
  FM051900 23005KT P6SM SCT070
  FM060300 24004KT P6SM BKN060
  FM060500 26004KT P6SM SCT060
  FM060800 31005KT P6SM SCT025
  FM061300 36005KT P6SM FEW070


KCLE 051121Z 0512/0618 36006KT P6SM OVC008
  TEMPO 0512/0515 OVC006
  FM051500 36008KT P6SM OVC015
  FM051800 36008KT P6SM BKN060
  FM061100 00000KT 3SM BR FEW150
  FM061400 00000KT P6SM FEW200


KCLT 051133Z 0512/0618 10008KT P6SM BKN200
  FM051500 17005KT P6SM SCT070 BKN150
  FM051700 20007KT P6SM BKN060
  FM060100 17004KT P6SM FEW060 BKN150
  FM061000 25005KT P6SM SCT150


KCVG 051136Z 0512/0618 34009KT P6SM -SHRA OVC007
  FM051300 36004KT P6SM VCSH SCT007 OVC050
  FM051800 33005KT P6SM BKN035
  FM052200 36005KT P6SM BKN040
  FM060800 04004KT 5SM BR BKN040
  FM061300 08003KT P6SM SCT050
  FM061600 14004KT P6SM SCT060


KDCA 051131Z 0512/0618 20006KT P6SM FEW070 SCT200
  FM051700 21005KT P6SM SCT100
  FM060200 21004KT P6SM BKN070
  FM060500 26004KT P6SM BKN060
  FM061100 36005KT P6SM SCT045


KDEN 051120Z 0512/0618 21009KT P6SM FEW110 SCT220
  FM051500 24007KT P6SM FEW110 SCT220
  FM051900 10007KT P6SM FEW090 SCT140
  FM052200 28010G17KT P6SM FEW090 BKN140
  FM060100 14010KT P6SM FEW100 SCT140
  FM060500 19011KT P6SM FEW200
  FM061500 24007KT P6SM FEW200


KDFW 051238Z 0513/0618 04006KT 3SM BR OVC004
  TEMPO 0513/0515 1SM BR OVC002
  FM051600 11007KT P6SM OVC015
  FM052000 15008KT P6SM OVC025
  FM061000 15008KT P6SM OVC010


KDTW 051120Z 0512/0618 35007KT P6SM OVC012
  FM051500 02006KT P6SM OVC120
  FM052100 05005KT P6SM SKC
  FM061200 13005KT P6SM SKC


KEWR 051120Z 0512/0618 VRB04KT P6SM BKN060
  FM051500 23005KT P6SM BKN060
  FM051900 20008KT P6SM BKN070
  FM060100 28005KT P6SM BKN050
  FM060500 33007KT P6SM BKN050
  FM061300 35010KT P6SM FEW050


KFLL 051145Z 0512/0618 VRB05KT P6SM FEW030 SCT050
  FM051700 15010KT P6SM VCSH FEW025 SCT035 BKN050
  FM060600 11005KT P6SM FEW015 SCT035 BKN050
  PROB30 0612/0618 6SM SHRA SCT025 BKN050


KIAD 051131Z 0512/0618 20004KT P6SM FEW100 SCT200
  FM051600 22005KT P6SM BKN100
  FM060500 VRB03KT P6SM SCT060
  FM061000 34004KT P6SM SCT020
  FM061100 36005KT P6SM SCT025


KIAH 051144Z 0512/0618 34005KT 1/2SM FG OVC002
  TEMPO 0513/0515 1SM BR OVC005
  FM051500 VRB03KT P6SM BKN009
  FM051800 07003KT P6SM BKN025
  FM052100 08006KT P6SM SCT035 BKN040
  FM060600 06003KT P6SM OVC025
  FM060900 VRB03KT 6SM BR OVC015
  FM061500 13006KT P6SM OVC025


KJFK 051227Z 0512/0618 20005KT P6SM SCT010 BKN050
  TEMPO 0512/0514 BKN008
  FM051500 17008KT P6SM BKN060
  FM051900 16009KT P6SM BKN070
  FM060200 22006KT P6SM BKN050
  FM060600 33008KT P6SM BKN050
  FM061300 34010KT P6SM FEW050


KLAS 051120Z 0512/0618 18013G22KT P6SM SCT150 BKN200
  FM051700 20018G28KT P6SM SCT150 SCT200
  FM060300 21013G22KT P6SM FEW080 BKN200
  FM060800 20011KT P6SM FEW060 SCT120 BKN200


KLAX 051302Z 0513/0618 26008KT P6SM BKN019 BKN027
  FM051800 23010KT P6SM BKN025 BKN040
  FM052200 23012G20KT P6SM VCSH SCT025 OVC035
  FM060400 21015G25KT 4SM -RA BR BKN025 OVC035
  FM061000 17015G25KT 2SM RA BR BKN015 OVC025
  FM061500 21010KT 4SM -RA BR BKN025 OVC035


KLGA 051229Z 0512/0618 18005KT P6SM FEW010 BKN050
  TEMPO 0513/0514 BKN010
  FM051400 08005KT P6SM BKN060
  FM051700 15007KT P6SM BKN060
  FM052000 19008KT P6SM BKN070
  FM060200 22005KT P6SM BKN060
  FM060600 33008KT P6SM BKN050
  FM061300 35010KT P6SM FEW050


KMCO 051135Z 0512/0618 28007KT P6SM VCSH SCT030 BKN100
  TEMPO 0513/0516 6SM -SHRA
  FM051700 05008KT P6SM VCSH SCT030 BKN080
  FM060200 06004KT P6SM SCT030 BKN050 OVC100


KMDW 051120Z 0512/0618 03009KT P6SM BKN120
  FM060300 08003KT P6SM SCT250


KMEM 051120Z 0512/0618 01006KT P6SM FEW250
  FM051600 35006KT P6SM FEW040 SCT250
  FM060100 03005KT P6SM FEW050 SCT250
  FM060700 07003KT P6SM SCT250
  FM061100 10004KT P6SM SCT250


KMIA 051145Z 0512/0618 VRB05KT P6SM FEW035 SCT050
  FM051700 16008KT P6SM VCSH FEW025 SCT035 BKN050
  FM060600 10005KT P6SM FEW015 SCT035 BKN050
  PROB30 0612/0618 6SM SHRA SCT025 BKN050


KMSP 051120Z 0512/0618 13004KT P6SM FEW100
  FM051500 16009KT P6SM SCT150
  FM060400 13008KT P6SM BKN100
  FM061500 14010KT P6SM BKN030


KORD 051120Z 0512/0618 03009KT P6SM BKN120
  FM060300 08003KT P6SM SCT250


KPDX 051131Z 0512/0612 VRB02KT P6SM VCSH SCT025 OVC040
  FM051900 33007KT P6SM SCT050 BKN100
  FM061000 VRB03KT P6SM SCT025 BKN050


KPHL 051330Z 0514/0618 25008KT P6SM BKN060
  FM051800 25008KT P6SM BKN070 BKN250
  FM060400 25005KT P6SM VCSH SCT030 OVC040
  FM060800 35009KT P6SM SCT025 BKN035
  FM061200 34008KT P6SM FEW030 FEW250


KPHX 051120Z 0512/0618 11007KT P6SM SKC
  FM051700 18009KT P6SM SKC
  FM052000 24012G18KT P6SM SKC
  FM060300 26008KT P6SM SKC
  FM060900 11007KT P6SM SKC


KPIT 051120Z 0512/0618 VRB03KT P6SM OVC100
  FM051500 30006KT P6SM VCSH BKN035
  FM052200 32005KT P6SM SCT035
  FM060900 35003KT P6SM SCT250


KSAN 051137Z 0512/0618 17006KT P6SM SCT025 OVC035
  TEMPO 0512/0516 BKN025
  FM052000 21010KT P6SM SCT025 BKN035
  FM060000 20011G18KT P6SM SCT025 BKN035
  FM060600 20017G27KT P6SM BKN020 OVC035
  FM061500 19018G30KT P6SM VCSH SCT020 BKN035


KSEA 051120Z 0512/0618 01010KT P6SM OVC050
  FM051800 35008KT P6SM BKN100
  FM060100 03006KT P6SM BKN050


KSFO 051122Z 0512/0618 17010G17KT P6SM -SHRA OVC035
  FM051400 16020G32KT 5SM SHRA BKN025 OVC030
  FM051700 23018G26KT 4SM RA VCTS OVC020CB
  FM052100 23016KT 5SM -SHRA BR VCTS OVC025CB
  FM060100 26010KT P6SM VCSH BKN025
  FM061000 28008KT P6SM SCT025


KSLC 051120Z 0512/0618 34006KT P6SM VCSH BKN090
  FM051400 18010KT P6SM VCSH BKN090
  FM051800 20012G22KT P6SM VCSH SCT040 BKN060
  FM060400 16012G20KT P6SM BKN120
  FM060900 17020G28KT P6SM BKN090


KSTL 051131Z 0512/0618 VRB04KT P6SM OVC025
  FM051300 05005KT P6SM OVC022
  FM060000 VRB04KT P6SM BKN035
  FM061200 VRB04KT P6SM BKN022
  FM061600 18007KT P6SM BKN040


KTPA 051325Z 0513/0618 VRB03KT P6SM SCT025 BKN040
  TEMPO 0513/0515 BKN025
  FM051500 34007KT P6SM VCSH SCT025 OVC045
  FM052100 03007KT 6SM SHRA SCT030 BKN040
  FM060000 06005KT P6SM VCSH SCT015 OVC060
  FM060900 VRB03KT P6SM FEW010 SCT020